Time;durP1;ratioP1;P1;durP2;ratioP2;P2;SDS_P1;SDS_P2;PMS_P1;PMS_P2;Temp;Humidity;BMP_temperature;BMP_pressure;BME280_temperature;BME280_humidity;BME280_pressure;Samples;Min_cycle;Max_cycle;Signal;HPM_P1;HPM_P2
2022/01/20 00:03:17;;;;;;;24.23;13.45;;;;;;;-2.12;100.00;98949.63;4981455;28;20045;-56
2022/01/20 00:27:28;;;;;;;15.90;9.77;;;;;;;0.18;100.00;98922.44;4979954;28;20045;-55
2022/01/20 00:37:40;;;;;;;11.85;6.93;;;;;;;0.45;100.00;98900.47;4980529;28;20041;-55
2022/01/20 00:40:07;;;;;;;11.10;8.63;;;;;;;0.67;100.00;98897.66;4983992;28;20038;-55
2022/01/20 00:42:32;;;;;;;14.53;9.07;;;;;;;0.66;100.00;98898.47;4985036;28;20045;-55
2022/01/20 00:44:57;;;;;;;14.50;8.27;;;;;;;0.65;100.00;98890.88;4983797;28;20061;-56
2022/01/20 00:47:23;;;;;;;13.27;7.17;;;;;;;0.61;100.00;98901.69;4980269;28;20030;-56
2022/01/20 00:49:49;;;;;;;13.17;7.83;;;;;;;0.57;100.00;98889.81;4982703;28;20124;-57
2022/01/20 00:52:14;;;;;;;16.37;7.80;;;;;;;0.61;100.00;98907.59;4982902;28;20046;-56
2022/01/20 00:54:40;;;;;;;18.93;10.47;;;;;;;0.52;100.00;98897.28;4981421;28;20038;-56
2022/01/20 00:57:06;;;;;;;14.67;7.43;;;;;;;0.60;100.00;98908.41;4982207;28;20038;-57
2022/01/20 00:59:32;;;;;;;11.83;6.50;;;;;;;0.66;100.00;98925.38;4982676;28;20636;-55
2022/01/20 01:02:05;;;;;;;14.07;7.57;;;;;;;0.75;100.00;98898.69;4982926;28;20026;-56
2022/01/20 01:04:30;;;;;;;13.57;5.97;;;;;;;0.83;100.00;98914.03;4981302;28;20037;-57
2022/01/20 01:09:34;;;;;;;12.90;7.27;;;;;;;0.60;100.00;98903.34;4982665;28;20044;-56
2022/01/20 01:12:04;;;;;;;13.13;7.87;;;;;;;0.54;100.00;98912.47;4982346;28;20030;-53
2022/01/20 01:14:32;;;;;;;15.90;7.93;;;;;;;0.48;100.00;98920.72;4979896;28;20092;-56
2022/01/20 01:24:39;;;;;;;8.10;5.40;;;;;;;1.03;100.00;98896.81;4979913;28;20283;-56
2022/01/20 01:27:05;;;;;;;6.30;3.33;;;;;;;2.18;100.00;98894.16;4980562;28;20038;-57
2022/01/20 01:32:18;;;;;;;15.93;8.40;;;;;;;3.29;100.00;98901.00;4983816;28;20057;-56
2022/01/20 01:34:49;;;;;;;10.87;5.87;;;;;;;3.17;100.00;98886.50;4980981;28;20042;-57
2022/01/20 01:37:36;;;;;;;12.10;6.33;;;;;;;3.20;100.00;98891.59;4986176;28;20809;-55
2022/01/20 01:40:03;;;;;;;7.68;5.10;;;;;;;3.12;100.00;98880.50;4986266;28;20191;-56
2022/01/20 01:42:39;;;;;;;6.17;4.33;;;;;;;3.02;100.00;98891.31;4983869;28;20046;-56
2022/01/20 01:45:18;;;;;;;6.60;3.13;;;;;;;3.72;99.60;98880.47;4983487;28;20765;-57
2022/01/20 01:47:45;;;;;;;4.43;3.07;;;;;;;4.03;95.68;98879.16;4986565;28;20106;-56
2022/01/20 01:50:13;;;;;;;5.67;3.93;;;;;;;3.91;96.04;98871.38;4986479;28;20629;-57
2022/01/20 01:52:39;;;;;;;5.37;3.10;;;;;;;4.09;93.68;98864.84;4986019;28;20030;-57
2022/01/20 01:55:05;;;;;;;3.87;2.97;;;;;;;4.54;88.61;98869.47;4985013;28;20042;-56
2022/01/20 01:57:31;;;;;;;4.27;2.60;;;;;;;4.74;85.75;98851.88;4984717;28;20121;-57
2022/01/20 01:59:56;;;;;;;3.77;3.20;;;;;;;4.90;83.48;98845.22;4987680;28;20030;-56
2022/01/20 02:02:23;;;;;;;4.60;2.30;;;;;;;5.19;79.64;98838.63;4983256;28;20053;-56
2022/01/20 02:04:49;;;;;;;4.50;2.90;;;;;;;5.17;79.45;98829.31;4983652;28;20029;-55
2022/01/20 02:20:51;;;;;;;2.90;2.20;;;;;;;5.30;76.71;98791.25;4983169;28;20093;-56
2022/01/20 02:23:16;;;;;;;3.57;2.33;;;;;;;5.34;76.33;98846.34;4984017;28;20034;-56
2022/01/20 02:25:42;;;;;;;3.77;3.07;;;;;;;5.41;75.05;98807.41;4985745;28;20034;-55
2022/01/20 02:28:09;;;;;;;3.33;2.50;;;;;;;5.52;74.44;98821.00;4987523;28;20073;-54
2022/01/20 02:30:36;;;;;;;2.90;2.20;;;;;;;5.58;73.38;98817.63;4983167;28;20096;-56
2022/01/20 02:33:05;;;;;;;3.17;2.50;;;;;;;5.65;72.33;98819.34;4984042;28;20675;-60
2022/01/20 02:35:34;;;;;;;2.60;2.40;;;;;;;5.55;73.59;98827.81;4985596;28;20064;-56
2022/01/20 02:38:04;;;;;;;3.93;3.07;;;;;;;5.58;72.76;98843.06;4985105;28;20774;-57
2022/01/20 02:46:07;;;;;;;3.70;3.10;;;;;;;5.80;70.97;98849.09;4949266;28;20798;-54
2022/01/20 02:48:34;;;;;;;4.93;2.67;;;;;;;5.80;70.45;98857.56;4946097;28;20675;-56
2022/01/20 02:51:00;;;;;;;5.80;3.37;;;;;;;5.83;70.55;98839.75;4948236;28;20714;-56
2022/01/20 02:53:25;;;;;;;5.07;2.83;;;;;;;5.80;70.96;98869.44;4950819;28;20055;-55
2022/01/20 02:55:53;;;;;;;5.00;3.43;;;;;;;5.80;70.39;98865.19;4947019;28;20038;-56
2022/01/20 02:58:19;;;;;;;2.83;2.50;;;;;;;5.80;70.33;98870.28;4944452;28;20178;-56
2022/01/20 03:00:44;;;;;;;5.77;3.17;;;;;;;5.78;70.03;98859.25;4948166;28;20043;-56
2022/01/20 03:03:10;;;;;;;4.93;2.90;;;;;;;5.69;70.55;98877.00;4948444;28;20045;-57
2022/01/20 03:05:36;;;;;;;3.60;2.87;;;;;;;5.65;71.63;98851.56;4948351;28;20038;-55
2022/01/20 03:08:01;;;;;;;4.83;2.77;;;;;;;5.65;71.60;98856.63;4945038;28;20422;-56
2022/01/20 03:10:28;;;;;;;5.40;3.20;;;;;;;5.65;71.75;98860.03;4948474;28;20039;-55
2022/01/20 03:12:54;;;;;;;4.23;2.60;;;;;;;5.69;71.46;98871.91;4949032;28;20066;-55
2022/01/20 03:15:19;;;;;;;5.33;3.13;;;;;;;5.60;72.59;98861.69;4946431;28;20043;-54
2022/01/20 03:17:45;;;;;;;4.10;2.80;;;;;;;5.60;72.98;98854.06;4948151;28;20146;-56
2022/01/20 03:20:11;;;;;;;6.10;2.83;;;;;;;5.64;72.74;98848.19;4968103;28;20046;-56
2022/01/20 03:22:37;;;;;;;4.60;3.53;;;;;;;5.58;73.97;98826.94;4984445;28;20023;-56
2022/01/20 03:25:03;;;;;;;3.63;3.03;;;;;;;5.61;73.08;98842.22;4981186;28;20048;-55
2022/01/20 03:27:28;;;;;;;4.47;2.57;;;;;;;5.61;73.58;98832.03;4983825;28;20049;-55
2022/01/20 03:29:54;;;;;;;3.67;3.00;;;;;;;5.70;71.71;98839.72;4983047;28;20475;-55
2022/01/20 03:32:19;;;;;;;3.30;2.47;;;;;;;5.63;72.84;98827.81;4983469;28;20031;-56
2022/01/20 03:34:45;;;;;;;4.47;2.97;;;;;;;5.76;72.76;98832.97;4981758;28;20023;-56
2022/01/20 03:37:10;;;;;;;3.60;2.87;;;;;;;5.67;72.67;98830.38;4981609;28;20041;-56
2022/01/20 03:39:35;;;;;;;3.87;3.27;;;;;;;5.65;72.73;98831.22;4983966;28;20084;-54
2022/01/20 03:42:01;;;;;;;4.40;3.07;;;;;;;5.63;73.63;98832.91;4983667;28;20681;-56
2022/01/20 03:44:26;;;;;;;4.40;2.43;;;;;;;5.61;72.90;98816.78;4981302;28;20041;-57
2022/01/20 03:46:52;;;;;;;4.10;3.07;;;;;;;5.65;73.18;98818.50;4981805;28;20644;-55
2022/01/20 03:49:34;;;;;;;4.97;3.77;;;;;;;5.63;73.26;98821.06;4983276;28;20114;-55
2022/01/20 03:51:59;;;;;;;3.50;2.63;;;;;;;5.67;73.51;98816.81;4981816;28;20042;-56
2022/01/20 03:54:25;;;;;;;4.00;3.07;;;;;;;5.57;74.54;98822.69;4981251;28;20026;-57
2022/01/20 03:56:51;;;;;;;5.00;2.70;;;;;;;5.57;74.00;98810.84;4982016;28;20076;-56
2022/01/20 03:59:16;;;;;;;4.33;2.83;;;;;;;5.60;73.48;98810.84;4982617;28;20424;-57
2022/01/20 04:01:42;;;;;;;4.27;2.40;;;;;;;5.52;73.60;98809.97;4981831;28;20042;-52
2022/01/20 04:04:08;;;;;;;4.30;2.37;;;;;;;5.39;74.54;98795.50;4980770;28;20033;-56
2022/01/20 04:06:33;;;;;;;3.53;2.53;;;;;;;5.45;74.61;98804.03;4981956;28;20088;-54
2022/01/20 04:08:59;;;;;;;5.10;3.07;;;;;;;5.41;74.53;98804.84;4983486;28;20038;-53
2022/01/20 04:11:26;;;;;;;3.20;2.80;;;;;;;5.38;75.07;98809.09;4981782;28;20089;-55
2022/01/20 04:13:53;;;;;;;4.60;2.70;;;;;;;5.28;75.66;98807.31;4982401;28;20122;-53
2022/01/20 04:19:21;;;;;;;3.20;2.43;;;;;;;5.24;75.36;98818.31;4983542;28;20052;-54
2022/01/20 04:21:47;;;;;;;3.10;2.80;;;;;;;5.27;74.50;98801.41;4981363;28;20034;-56
2022/01/20 04:24:13;;;;;;;3.90;2.50;;;;;;;5.18;75.52;98811.50;4982589;28;20030;-55
2022/01/20 04:26:40;;;;;;;4.17;2.27;;;;;;;5.27;74.75;98815.78;4982161;28;20129;-55
2022/01/20 04:29:08;;;;;;;6.60;2.63;;;;;;;5.25;75.95;98823.44;4984129;28;20116;-54
2022/01/20 04:31:34;;;;;;;5.70;3.07;;;;;;;5.21;76.53;98821.72;4983033;28;20086;-56
2022/01/20 04:34:00;;;;;;;3.20;2.50;;;;;;;5.25;76.15;98825.13;4980266;28;20580;-54
2022/01/20 04:36:29;;;;;;;3.70;2.00;;;;;;;5.27;75.74;98815.78;4982303;28;20034;-56
2022/01/20 04:38:55;;;;;;;4.17;3.07;;;;;;;5.15;76.50;98814.03;4982287;28;20195;-57
2022/01/20 04:41:21;;;;;;;2.33;1.93;;;;;;;5.27;75.87;98796.31;4980123;28;20030;-57
2022/01/20 04:43:47;;;;;;;3.40;2.77;;;;;;;5.26;76.09;98804.75;4981765;28;20046;-56
2022/01/20 04:46:29;;;;;;;3.00;2.37;;;;;;;5.29;75.84;98801.41;4981157;28;20031;-56
2022/01/20 04:57:01;;;;;;;6.17;2.97;;;;;;;5.32;75.38;98802.28;4984673;28;20122;-56
2022/01/20 04:57:20;;;;;;;5.00;2.57;;;;;;;5.42;74.32;98787.91;4981446;28;20076;-58
2022/01/20 04:59:46;;;;;;;2.03;1.80;;;;;;;5.36;74.47;98781.09;4979458;28;20814;-56
2022/01/20 05:02:12;;;;;;;4.07;2.50;;;;;;;5.42;74.07;98793.00;4979325;28;20065;-55
2022/01/20 05:04:38;;;;;;;3.20;2.80;;;;;;;5.41;74.18;98784.50;4982042;28;20145;-56
2022/01/20 05:07:05;;;;;;;5.13;2.60;;;;;;;5.40;74.89;98787.91;4980897;28;20138;-55
2022/01/20 05:09:30;;;;;;;3.23;2.60;;;;;;;5.30;76.48;98788.72;4977206;28;20245;-55
2022/01/20 05:12:11;;;;;;;2.90;2.50;;;;;;;5.25;77.34;98795.47;4979680;28;20034;-56
2022/01/20 05:14:37;;;;;;;3.50;2.20;;;;;;;5.29;77.40;98792.09;4982705;28;20136;-55
2022/01/20 05:17:03;;;;;;;6.23;3.13;;;;;;;5.26;77.76;98789.53;4982856;28;20730;-55
2022/01/20 05:19:30;;;;;;;11.47;2.50;;;;;;;5.31;77.45;98789.53;4982137;28;20129;-56
2022/01/20 05:21:56;;;;;;;11.27;2.97;;;;;;;5.22;78.28;98790.34;4981718;28;20634;-56
2022/01/20 05:24:24;;;;;;;4.27;2.30;;;;;;;5.18;79.45;98796.25;4984797;28;20037;-55
2022/01/20 05:26:57;;;;;;;3.87;2.57;;;;;;;5.13;79.35;98797.09;4982962;28;20164;-57
2022/01/20 05:29:23;;;;;;;4.53;2.20;;;;;;;5.06;80.63;98793.66;4978498;28;20038;-56
2022/01/20 05:31:49;;;;;;;3.37;2.33;;;;;;;4.97;82.06;98786.84;4979478;28;20487;-55
2022/01/20 05:34:15;;;;;;;2.93;2.33;;;;;;;5.06;80.65;98791.13;4980920;28;20688;-55
2022/01/20 05:36:42;;;;;;;3.57;1.90;;;;;;;5.25;78.97;98787.84;4977779;28;20096;-56
2022/01/20 05:39:08;;;;;;;1.80;1.70;;;;;;;5.42;77.74;98777.75;4979204;28;20053;-52
2022/01/20 05:41:34;;;;;;;4.33;2.17;;;;;;;5.52;78.21;98785.41;4979826;28;20022;-56
2022/01/20 05:44:00;;;;;;;1.83;1.40;;;;;;;5.59;77.63;98781.19;4981217;28;20237;-55
2022/01/20 05:46:33;;;;;;;1.87;1.43;;;;;;;5.51;78.41;98791.34;4978688;28;20019;-56
2022/01/20 05:49:08;;;;;;;2.17;1.50;;;;;;;5.56;78.52;98788.78;4978378;28;20026;-54
2022/01/20 05:51:34;;;;;;;3.85;1.98;;;;;;;5.61;78.63;98773.56;4981381;28;20106;-55
2022/01/20 05:53:59;;;;;;;1.97;1.60;;;;;;;5.63;79.35;98787.13;4980487;28;20771;-56
2022/01/20 05:56:24;;;;;;;2.63;1.27;;;;;;;5.70;78.40;98781.22;4980258;28;20034;-56
2022/01/20 05:58:51;;;;;;;2.83;1.70;;;;;;;5.65;78.78;98777.81;4978604;28;20178;-53
2022/01/20 06:01:17;;;;;;;2.77;1.60;;;;;;;5.46;81.17;98782.84;4982214;28;20026;-56
2022/01/20 06:03:43;;;;;;;2.27;1.47;;;;;;;5.44;83.56;98789.59;4982664;28;20141;-56
2022/01/20 06:06:12;;;;;;;3.93;1.50;;;;;;;5.40;86.08;98792.97;4976426;28;20026;-53
2022/01/20 06:08:38;;;;;;;1.93;1.50;;;;;;;5.32;88.50;98786.16;4980003;28;20121;-58
2022/01/20 06:11:04;;;;;;;6.37;1.80;;;;;;;5.22;91.45;98792.88;4982919;28;20068;-56
2022/01/20 06:13:31;;;;;;;7.30;1.57;;;;;;;5.09;93.81;98778.44;4980364;28;20468;-56
2022/01/20 06:15:57;;;;;;;2.23;1.57;;;;;;;5.06;94.71;98788.56;4979646;28;20040;-52
2022/01/20 06:18:23;;;;;;;3.70;1.73;;;;;;;5.12;94.38;98775.06;4978576;28;20026;-54
2022/01/20 06:20:49;;;;;;;3.87;1.53;;;;;;;5.15;93.67;98775.94;4982422;28;20037;-55
2022/01/20 06:23:16;;;;;;;1.40;1.30;;;;;;;5.25;93.70;98767.50;4984756;28;20550;-53
2022/01/20 06:25:42;;;;;;;2.60;2.23;;;;;;;5.15;92.96;98775.94;4980406;28;20523;-57
2022/01/20 06:28:08;;;;;;;1.30;1.20;;;;;;;5.11;92.52;98783.53;4984104;28;20041;-54
2022/01/20 06:30:34;;;;;;;1.40;1.30;;;;;;;5.16;91.56;98797.97;4982208;28;20033;-52
2022/01/20 06:33:00;;;;;;;1.80;1.63;;;;;;;5.21;91.55;98772.56;4980066;28;20026;-55
2022/01/20 06:35:25;;;;;;;2.33;1.20;;;;;;;5.20;88.88;98778.50;4985873;28;20027;-61
2022/01/20 06:37:50;;;;;;;2.13;1.40;;;;;;;5.25;86.73;98777.69;4984780;28;20238;-59
2022/01/20 06:40:16;;;;;;;1.57;1.30;;;;;;;5.26;85.70;98774.28;4979799;28;20061;-60
2022/01/20 06:42:42;;;;;;;2.83;1.73;;;;;;;5.26;85.13;98761.56;4984703;28;20473;-60
2022/01/20 06:45:10;;;;;;;1.50;1.40;;;;;;;5.28;85.48;98756.50;4984760;28;20110;-61
2022/01/20 06:47:36;;;;;;;2.90;1.63;;;;;;;5.28;85.12;98749.72;4982911;28;20038;-60
2022/01/20 06:50:03;;;;;;;2.77;1.50;;;;;;;5.31;85.17;98764.13;4983799;28;20037;-60
2022/01/20 06:52:29;;;;;;;1.07;0.90;;;;;;;5.28;84.67;98756.50;4982476;28;20030;-61
2022/01/20 06:54:58;;;;;;;2.30;1.50;;;;;;;5.27;85.08;98759.88;4984743;28;20034;-61
2022/01/20 06:57:23;;;;;;;1.57;1.47;;;;;;;5.26;84.89;98764.09;4983966;28;20030;-61
2022/01/20 06:59:49;;;;;;;2.07;1.87;;;;;;;5.35;84.30;98753.13;4980311;28;20057;-61
2022/01/20 07:02:15;;;;;;;1.73;1.37;;;;;;;5.30;84.19;98760.75;4982792;28;20031;-58
2022/01/20 07:04:45;;;;;;;2.73;1.00;;;;;;;5.35;84.36;98756.50;4984535;28;20062;-58
2022/01/20 07:07:12;;;;;;;1.30;1.10;;;;;;;5.31;84.31;98762.44;4982751;28;20524;-61
2022/01/20 07:09:39;;;;;;;1.80;1.50;;;;;;;5.30;83.70;98760.75;4982511;28;20037;-58
2022/01/20 07:12:05;;;;;;;2.87;1.60;;;;;;;5.33;84.13;98768.38;4981602;28;20065;-58
2022/01/20 07:14:31;;;;;;;1.70;1.53;;;;;;;5.32;84.18;98765.84;4982914;28;20050;-57
2022/01/20 07:16:57;;;;;;;1.20;1.10;;;;;;;5.29;83.93;98781.06;4983361;28;20048;-59
2022/01/20 07:19:23;;;;;;;1.53;1.17;;;;;;;5.34;83.59;98771.78;4978974;28;20076;-59
2022/01/20 07:21:48;;;;;;;1.03;0.97;;;;;;;5.32;83.83;98776.84;4984950;28;20114;-59
2022/01/20 07:24:14;;;;;;;2.83;1.20;;;;;;;5.36;84.50;98785.34;4984132;28;20116;-59
2022/01/20 07:26:39;;;;;;;2.20;1.20;;;;;;;5.28;84.83;98784.44;4978857;28;20045;-58
2022/01/20 07:29:05;;;;;;;1.13;1.03;;;;;;;5.25;85.19;98790.38;4982505;28;20510;-61
2022/01/20 07:31:31;;;;;;;1.50;1.00;;;;;;;5.22;84.06;98802.22;4983670;28;20086;-60
2022/01/20 07:33:57;;;;;;;3.40;1.60;;;;;;;5.35;83.56;98792.09;4981035;28;20035;-58
2022/01/20 07:36:22;;;;;;;1.57;1.13;;;;;;;5.34;83.76;98781.94;4978749;28;20093;-58
2022/01/20 07:38:48;;;;;;;1.53;0.90;;;;;;;5.30;84.67;98777.69;4978106;28;20034;-59
2022/01/20 07:41:13;;;;;;;0.93;0.90;;;;;;;5.31;85.08;98781.91;4982410;28;20806;-58
2022/01/20 07:43:40;;;;;;;1.43;1.20;;;;;;;5.26;84.82;98794.59;4984059;28;20045;-60
2022/01/20 07:46:05;;;;;;;1.53;0.90;;;;;;;5.36;83.51;98790.41;4978775;28;20634;-58
2022/01/20 07:48:31;;;;;;;1.80;0.93;;;;;;;5.40;83.75;98779.41;4979625;28;20034;-59
2022/01/20 07:50:56;;;;;;;1.33;1.23;;;;;;;5.37;83.71;98782.81;4982138;28;20100;-59
2022/01/20 07:53:22;;;;;;;5.27;1.30;;;;;;;5.38;84.35;98773.50;4979250;28;20146;-60
2022/01/20 07:55:47;;;;;;;11.97;4.27;;;;;;;5.37;85.18;98781.97;4981273;28;20060;-59
2022/01/20 07:58:13;;;;;;;4.13;2.47;;;;;;;5.41;84.33;98768.41;4982250;28;20493;-59
2022/01/20 08:00:38;;;;;;;2.10;1.90;;;;;;;5.39;84.23;98781.09;4981536;28;20105;-59
2022/01/20 08:03:05;;;;;;;3.97;2.13;;;;;;;5.36;85.03;98776.03;4982670;28;20078;-59
2022/01/20 08:05:30;;;;;;;3.87;1.97;;;;;;;5.36;85.62;98777.72;4981097;28;20031;-56
2022/01/20 08:07:56;;;;;;;7.40;2.67;;;;;;;5.28;85.62;98777.69;4980884;28;20034;-59
2022/01/20 08:10:21;;;;;;;4.20;1.80;;;;;;;5.33;86.00;98790.41;4982449;28;20526;-58
2022/01/20 08:12:47;;;;;;;1.00;0.90;;;;;;;5.37;85.01;98782.81;4981413;28;20465;-58
2022/01/20 08:15:14;;;;;;;2.93;1.07;;;;;;;5.38;84.40;98793.81;4978677;28;20022;-60
2022/01/20 08:17:40;;;;;;;5.93;2.60;;;;;;;5.43;83.23;98789.63;4980349;28;20050;-59
2022/01/20 08:20:06;;;;;;;5.17;1.90;;;;;;;5.45;84.05;98795.53;4981786;28;20027;-60
2022/01/20 08:22:34;;;;;;;6.40;2.90;;;;;;;5.48;84.14;98788.78;4979913;28;20049;-61
2022/01/20 08:25:12;;;;;;;3.37;0.97;;;;;;;5.36;85.68;98791.28;4981212;28;20473;-58
2022/01/20 08:27:39;;;;;;;1.67;0.83;;;;;;;5.33;85.45;98781.09;4981557;28;20022;-58
2022/01/20 08:30:07;;;;;;;1.17;0.60;;;;;;;5.26;86.79;98786.97;4980487;28;20033;-57
2022/01/20 08:32:33;;;;;;;0.83;0.70;;;;;;;5.35;86.42;98801.41;4980921;28;20167;-57
2022/01/20 08:34:59;;;;;;;0.80;0.80;;;;;;;5.28;86.91;98802.25;4977663;28;20302;-59
2022/01/20 08:37:25;;;;;;;1.30;0.67;;;;;;;5.33;88.09;98809.06;4981000;28;20042;-59
2022/01/20 08:39:51;;;;;;;1.73;0.77;;;;;;;5.22;90.00;98797.97;4979878;28;20156;-57
2022/01/20 08:42:16;;;;;;;0.80;0.80;;;;;;;5.22;90.79;98802.22;4978396;28;20038;-58
2022/01/20 08:44:41;;;;;;;2.03;1.30;;;;;;;5.17;93.53;98816.59;4978527;28;20034;-58
2022/01/20 08:47:14;;;;;;;1.53;1.30;;;;;;;5.06;95.71;98829.22;4980517;28;20045;-58
2022/01/20 08:49:40;;;;;;;3.77;1.90;;;;;;;5.06;99.00;98836.84;4978953;28;20113;-58
2022/01/20 08:52:05;;;;;;;1.43;0.87;;;;;;;4.96;100.00;98835.97;4977609;28;20087;-60
2022/01/20 08:54:31;;;;;;;1.50;1.40;;;;;;;4.89;100.00;98825.72;4979192;28;20038;-57
2022/01/20 08:56:56;;;;;;;1.60;1.50;;;;;;;4.82;100.00;98841.78;4978679;28;20038;-59
2022/01/20 08:59:25;;;;;;;1.70;1.60;;;;;;;4.84;100.00;98846.03;4979663;28;20556;-56
2022/01/20 09:01:50;;;;;;;0.80;0.80;;;;;;;4.71;100.00;98833.25;4977756;28;20117;-59
2022/01/20 09:04:15;;;;;;;0.80;0.80;;;;;;;4.61;100.00;98845.00;4978849;28;20036;-60
2022/01/20 09:06:41;;;;;;;1.43;1.30;;;;;;;4.68;100.00;98839.13;4978241;28;20027;-60
2022/01/20 09:09:07;;;;;;;1.10;0.60;;;;;;;4.55;100.00;98838.19;4979478;28;20493;-56
2022/01/20 09:11:37;;;;;;;1.57;0.90;;;;;;;4.49;100.00;98845.78;4978152;28;20033;-59
2022/01/20 09:16:48;;;;;;;1.30;1.20;;;;;;;4.22;100.00;98822.66;4980356;28;20263;-60
2022/01/20 09:19:14;;;;;;;3.87;1.77;;;;;;;4.16;100.00;98832.75;4978201;28;20267;-60
2022/01/20 09:21:39;;;;;;;3.53;2.23;;;;;;;4.10;100.00;98814.94;4977442;28;20064;-59
2022/01/20 09:24:06;;;;;;;1.90;1.50;;;;;;;4.10;100.00;98827.63;4978834;28;20099;-58
2022/01/20 09:26:32;;;;;;;2.13;1.37;;;;;;;4.04;100.00;98818.28;4980013;28;20034;-57
2022/01/20 09:28:59;;;;;;;3.87;1.93;;;;;;;4.09;100.00;98816.63;4977706;28;20096;-56
2022/01/20 09:31:26;;;;;;;2.83;1.67;;;;;;;4.10;100.00;98807.34;4978212;28;20030;-59
2022/01/20 09:33:53;;;;;;;2.90;1.57;;;;;;;4.09;100.00;98823.38;4979449;28;20061;-59
2022/01/20 09:36:20;;;;;;;3.27;2.03;;;;;;;4.03;100.00;98821.63;4979386;28;20087;-57
2022/01/20 09:38:46;;;;;;;1.10;1.00;;;;;;;3.97;100.00;98819.06;4977711;28;20687;-59
2022/01/20 09:41:11;;;;;;;1.37;0.80;;;;;;;3.87;100.00;98812.19;4977303;28;20026;-59
2022/01/20 09:43:37;;;;;;;0.93;0.83;;;;;;;3.93;100.00;98814.78;4980071;28;20034;-58
2022/01/20 09:46:03;;;;;;;0.70;0.70;;;;;;;4.06;100.00;98806.47;4980452;28;20720;-58
2022/01/20 09:48:32;;;;;;;2.53;1.63;;;;;;;4.08;100.00;98806.47;4977916;28;20463;-59
2022/01/20 09:51:00;;;;;;;6.77;2.77;;;;;;;4.23;100.00;98810.84;4976680;28;20311;-58
2022/01/20 09:53:26;;;;;;;3.73;2.43;;;;;;;4.19;100.00;98807.44;4978733;28;20320;-58
2022/01/20 09:55:52;;;;;;;2.40;1.20;;;;;;;4.27;100.00;98805.81;4981199;28;20042;-58
2022/01/20 09:58:17;;;;;;;1.50;1.40;;;;;;;4.28;100.00;98791.44;4979964;28;20345;-57
2022/01/20 10:00:46;;;;;;;0.80;0.80;;;;;;;4.28;100.00;98788.91;4981056;28;20030;-54
2022/01/20 10:03:16;;;;;;;1.20;1.10;;;;;;;4.25;100.00;98789.72;4984444;28;20062;-59
2022/01/20 10:05:44;;;;;;;1.03;0.90;;;;;;;4.21;100.00;98798.13;4982279;28;20562;-58
2022/01/20 10:08:14;;;;;;;1.00;1.00;;;;;;;4.12;100.00;98806.50;4980114;28;20034;-60
2022/01/20 10:11:01;;;;;;;0.93;0.80;;;;;;;4.23;100.00;98796.47;4980677;28;20120;-57
2022/01/20 10:13:31;;;;;;;0.80;0.80;;;;;;;4.17;100.00;98805.69;4981767;28;20376;-56
2022/01/20 10:16:00;;;;;;;1.10;1.07;;;;;;;4.31;100.00;98794.84;4981950;28;20038;-54
2022/01/20 10:18:25;;;;;;;2.13;1.10;;;;;;;4.30;100.00;98799.91;4981181;28;20117;-57
2022/01/20 10:20:54;;;;;;;1.47;1.07;;;;;;;4.33;100.00;98785.53;4977915;28;20523;-56
2022/01/20 10:23:40;;;;;;;2.50;1.47;;;;;;;4.39;100.00;98784.75;4983790;28;20037;-59
2022/01/20 10:26:16;;;;;;;3.30;2.05;;;;;;;4.43;100.00;98791.53;4980758;28;20112;-58
2022/01/20 10:28:53;;;;;;;1.33;1.17;;;;;;;4.37;100.00;98788.97;4979724;28;20153;-62
2022/01/20 10:31:37;;;;;;;1.13;0.80;;;;;;;4.49;100.00;98769.63;4983016;28;20089;-62
2022/01/20 10:34:20;;;;;;;1.97;1.27;;;;;;;4.63;100.00;98773.91;4982955;28;20089;-60
2022/01/20 10:36:55;;;;;;;1.23;1.00;;;;;;;4.60;100.00;98765.44;4980618;28;20359;-63
2022/01/20 10:39:37;;;;;;;1.60;0.80;;;;;;;4.67;100.00;98760.44;4982562;28;20033;-59
2022/01/20 10:42:34;;;;;;;0.70;0.70;;;;;;;4.77;100.00;98762.16;4983135;28;20042;-60
2022/01/20 10:45:00;;;;;;;0.90;0.90;;;;;;;4.68;100.00;98757.03;4978676;28;20559;-60
2022/01/20 10:47:32;;;;;;;1.57;1.13;;;;;;;4.55;100.00;98751.88;4980393;28;20509;-61
2022/01/20 10:50:11;;;;;;;1.40;1.30;;;;;;;4.36;100.00;98775.44;4984208;28;20026;-60
2022/01/20 10:52:39;;;;;;;1.47;1.23;;;;;;;4.14;100.00;98743.09;4982182;28;20042;-61
2022/01/20 10:55:07;;;;;;;1.67;1.57;;;;;;;4.13;100.00;98776.91;4979518;28;20484;-60
2022/01/20 10:57:35;;;;;;;1.93;1.27;;;;;;;4.04;100.00;98757.38;4978909;28;20606;-57
2022/01/20 11:00:06;;;;;;;4.00;1.30;;;;;;;4.17;100.00;98738.03;4983121;28;20109;-59
2022/01/20 11:02:33;;;;;;;2.43;1.20;;;;;;;4.17;100.00;98757.50;4981947;28;20478;-54
2022/01/20 11:04:59;;;;;;;3.27;1.60;;;;;;;4.25;100.00;98759.25;4979232;28;20557;-56
2022/01/20 11:07:27;;;;;;;2.50;1.60;;;;;;;4.34;100.00;98759.34;4979354;28;20601;-55
2022/01/20 11:10:02;;;;;;;1.50;1.03;;;;;;;4.37;100.00;98720.47;4983268;28;20031;-54
2022/01/20 11:12:28;;;;;;;2.70;1.17;;;;;;;4.39;99.83;98737.38;4981647;28;20065;-56
2022/01/20 11:14:54;;;;;;;2.77;1.50;;;;;;;4.52;96.64;98738.31;4980466;28;20057;-58
2022/01/20 11:17:31;;;;;;;4.83;1.20;;;;;;;4.66;88.65;98734.19;4986037;28;20405;-57
2022/01/20 11:20:03;;;;;;;2.37;1.00;;;;;;;4.72;86.94;98725.72;4986595;28;20374;-57
2022/01/20 11:22:30;;;;;;;1.47;1.37;;;;;;;4.84;86.55;98723.25;4984634;28;20070;-54
2022/01/20 11:25:05;;;;;;;1.77;1.50;;;;;;;4.85;86.30;98730.88;4982582;28;20045;-58
2022/01/20 11:27:34;;;;;;;1.23;1.13;;;;;;;4.81;82.71;98713.09;4986119;28;20092;-58
2022/01/20 11:30:01;;;;;;;2.30;1.30;;;;;;;4.81;81.55;98739.34;4986000;28;20034;-59
2022/01/20 11:32:29;;;;;;;3.80;1.00;;;;;;;4.87;76.81;98728.38;4984161;28;20034;-60
2022/01/20 11:35:07;;;;;;;3.67;1.23;;;;;;;5.05;77.47;98725.91;4982926;28;20034;-60
2022/01/20 11:37:57;;;;;;;1.33;1.23;;;;;;;5.07;75.22;98736.94;4986006;28;20041;-60
2022/01/20 11:40:24;;;;;;;4.20;1.03;;;;;;;5.18;76.66;98692.06;4985538;28;20884;-61
2022/01/20 11:43:07;;;;;;;2.83;1.40;;;;;;;5.04;74.63;98693.72;4982586;28;20370;-60
2022/01/20 11:46:02;;;;;;;1.40;1.17;;;;;;;5.09;76.80;98701.38;4984819;28;20058;-60
2022/01/20 11:48:27;;;;;;;1.37;1.27;;;;;;;5.01;78.25;98691.16;4986094;28;20093;-61
2022/01/20 11:51:08;;;;;;;1.70;0.97;;;;;;;5.17;75.57;98708.19;4984630;28;20117;-59
2022/01/20 11:53:42;;;;;;;1.53;1.43;;;;;;;5.31;75.67;98710.75;4982864;28;20034;-59
2022/01/20 11:56:09;;;;;;;1.37;1.27;;;;;;;5.13;74.10;98692.91;4985545;28;20030;-60
2022/01/20 11:58:35;;;;;;;3.60;1.60;;;;;;;5.09;73.29;98694.59;4985350;28;20580;-61
2022/01/20 12:01:02;;;;;;;2.43;1.17;;;;;;;5.26;71.40;98699.75;4982366;28;20053;-59
2022/01/20 12:03:29;;;;;;;4.07;1.30;;;;;;;5.28;72.22;98703.13;4983292;28;20129;-60
2022/01/20 12:06:13;;;;;;;1.47;1.33;;;;;;;5.35;70.48;98692.97;4975036;28;20401;-61
2022/01/20 12:08:57;;;;;;;2.70;1.43;;;;;;;5.39;69.10;98715.00;4985262;28;20853;-58
2022/01/20 12:11:45;;;;;;;2.60;1.10;;;;;;;5.32;68.50;98674.31;4982865;28;20030;-60
2022/01/20 12:14:11;;;;;;;2.53;1.67;;;;;;;5.16;67.73;98649.72;4983876;28;20469;-59
2022/01/20 12:16:38;;;;;;;3.07;1.40;;;;;;;5.27;69.74;98669.22;4984718;28;20068;-61
2022/01/20 12:19:09;;;;;;;3.30;1.17;;;;;;;5.33;69.96;98666.72;4983563;28;20034;-60
2022/01/20 12:21:37;;;;;;;4.33;1.50;;;;;;;5.34;70.70;98629.44;4983131;28;20049;-60
2022/01/20 12:24:03;;;;;;;3.43;1.57;;;;;;;5.38;70.41;98632.00;4984408;28;20544;-59
2022/01/20 12:26:34;;;;;;;3.40;1.83;;;;;;;5.32;72.35;98595.53;4984610;28;20568;-61
2022/01/20 12:29:08;;;;;;;2.33;1.20;;;;;;;5.25;71.12;98559.09;4982621;28;20419;-60
2022/01/20 12:31:53;;;;;;;3.30;1.57;;;;;;;5.41;71.39;98575.22;4981731;28;20129;-61
2022/01/20 12:34:19;;;;;;;0.93;0.93;;;;;;;5.43;66.78;98576.88;4985971;28;20592;-59
2022/01/20 12:36:52;;;;;;;2.17;2.07;;;;;;;5.63;67.40;98581.16;4984817;28;20045;-61
2022/01/20 12:39:22;;;;;;;2.30;0.80;;;;;;;5.65;65.32;98570.13;4998447;28;20074;-62
2022/01/20 12:42:01;;;;;;;5.73;2.63;;;;;;;5.62;63.78;98566.72;4982819;28;20500;-61
2022/01/20 12:45:54;;;;;;;6.43;1.37;;;;;;;5.78;64.34;98545.50;4984670;28;20038;-59
2022/01/20 12:47:48;;;;;;;2.00;1.10;;;;;;;5.73;63.66;98547.25;4983636;28;20121;-60
2022/01/20 12:50:13;;;;;;;1.47;1.20;;;;;;;5.70;63.51;98553.16;4984617;28;20508;-61
2022/01/20 12:52:51;;;;;;;1.30;1.20;;;;;;;5.70;62.37;98544.69;4987319;28;20472;-60
2022/01/20 12:55:17;;;;;;;1.47;1.33;;;;;;;5.76;61.22;98552.31;4983876;28;20034;-56
2022/01/20 12:57:44;;;;;;;6.07;1.50;;;;;;;5.83;60.58;98543.81;4981541;28;20116;-59
2022/01/20 13:00:10;;;;;;;1.27;1.10;;;;;;;5.74;58.74;98547.22;4982020;28;20037;-59